Time;durP1;ratioP1;P1;durP2;ratioP2;P2;SDS_P1;SDS_P2;PMS_P1;PMS_P2;Temp;Humidity;BMP_temperature;BMP_pressure;BME280_temperature;BME280_humidity;BME280_pressure;Samples;Min_cycle;Max_cycle;Signal;HPM_P1;HPM_P2
2023/05/18 00:01:13;;;;;;;5.15;1.55;;;;;;;;;;6306653;22;20098;-83
2023/05/18 00:03:40;;;;;;;3.97;0.95;;;;;;;;;;6307349;22;20051;-83
2023/05/18 00:06:06;;;;;;;4.68;0.93;;;;;;;;;;6307039;22;20460;-83
2023/05/18 00:08:35;;;;;;;4.13;1.40;;;;;;;;;;6308042;22;20015;-83
2023/05/18 00:11:02;;;;;;;4.30;1.67;;;;;;;;;;6280731;22;20015;-83
2023/05/18 00:13:29;;;;;;;3.17;0.77;;;;;;;;;;6307351;22;20023;-83
2023/05/18 00:15:55;;;;;;;3.60;1.00;;;;;;;;;;6306975;22;20012;-83
2023/05/18 00:18:23;;;;;;;3.60;1.08;;;;;;;;;;6307289;22;20094;-83
2023/05/18 00:20:58;;;;;;;4.07;1.10;;;;;;;;;;6306764;22;20019;-83
2023/05/18 00:23:34;;;;;;;4.95;0.88;;;;;;;;;;6280854;22;20030;-83
2023/05/18 00:26:01;;;;;;;7.30;1.23;;;;;;;;;;6307196;22;20384;-83
2023/05/18 00:28:28;;;;;;;4.50;1.10;;;;;;;;;;6306821;22;20066;-83
2023/05/18 00:30:54;;;;;;;5.22;1.20;;;;;;;;;;6306660;22;20319;-83
2023/05/18 00:33:21;;;;;;;4.55;1.23;;;;;;;;;;6306796;22;20342;-83
2023/05/18 00:35:47;;;;;;;7.80;1.05;;;;;;;;;;6307678;22;20015;-83
2023/05/18 00:38:16;;;;;;;4.07;1.10;;;;;;;;;;6306654;22;20026;-83
2023/05/18 00:40:42;;;;;;;6.78;1.40;;;;;;;;;;6307017;22;20061;-83
2023/05/18 00:43:09;;;;;;;1.70;0.75;;;;;;;;;;6306300;22;20026;-83
2023/05/18 00:45:35;;;;;;;6.15;1.17;;;;;;;;;;6307038;22;20464;-83
2023/05/18 00:48:01;;;;;;;3.25;1.08;;;;;;;;;;6280837;22;20015;-83
2023/05/18 00:50:27;;;;;;;3.72;1.23;;;;;;;;;;6306663;22;20015;-83
2023/05/18 00:52:54;;;;;;;2.60;0.93;;;;;;;;;;6306836;22;20015;-83
2023/05/18 00:55:20;;;;;;;4.50;1.17;;;;;;;;;;6307576;22;20072;-82
2023/05/18 00:57:47;;;;;;;5.72;1.40;;;;;;;;;;6306580;22;20024;-83
2023/05/18 01:00:14;;;;;;;4.60;1.20;;;;;;;;;;6306602;22;20391;-83
2023/05/18 01:02:44;;;;;;;2.97;1.10;;;;;;;;;;6306488;22;20015;-83
2023/05/18 01:05:11;;;;;;;4.72;1.10;;;;;;;;;;6281645;22;20022;-83
2023/05/18 01:07:43;;;;;;;5.10;1.38;;;;;;;;;;6306564;22;20019;-83
2023/05/18 01:10:10;;;;;;;6.03;1.20;;;;;;;;;;6307968;22;20015;-83
2023/05/18 01:12:45;;;;;;;5.72;1.15;;;;;;;;;;6282470;22;20019;-83
2023/05/18 01:15:11;;;;;;;6.32;1.20;;;;;;;;;;6310016;22;20047;-83
2023/05/18 01:18:03;;;;;;;4.60;1.38;;;;;;;;;;6284476;22;20023;-83
2023/05/18 01:20:32;;;;;;;5.90;1.50;;;;;;;;;;6310619;22;20015;-83
2023/05/18 01:23:19;;;;;;;4.70;1.48;;;;;;;;;;6284399;22;20016;-82
2023/05/18 01:25:54;;;;;;;5.28;1.33;;;;;;;;;;6284448;22;20076;-83
2023/05/18 01:28:25;;;;;;;5.18;1.00;;;;;;;;;;6284046;22;20030;-83
2023/05/18 01:30:51;;;;;;;7.57;1.30;;;;;;;;;;6284417;22;20333;-82
2023/05/18 01:33:18;;;;;;;6.88;2.45;;;;;;;;;;6310033;22;20019;-82
2023/05/18 01:35:46;;;;;;;3.08;1.15;;;;;;;;;;6310881;22;20417;-82
2023/05/18 01:38:17;;;;;;;4.07;1.70;;;;;;;;;;6311415;22;20055;-83
2023/05/18 01:40:50;;;;;;;6.18;1.23;;;;;;;;;;6309902;22;20094;-83
2023/05/18 01:43:17;;;;;;;2.88;1.17;;;;;;;;;;6309874;22;20019;-82
2023/05/18 01:45:46;;;;;;;4.18;0.93;;;;;;;;;;6310587;22;20081;-82
2023/05/18 01:48:15;;;;;;;3.63;1.33;;;;;;;;;;6309841;22;20012;-83
2023/05/18 01:50:46;;;;;;;2.38;1.20;;;;;;;;;;6309710;22;20337;-83
2023/05/18 01:53:18;;;;;;;4.50;1.60;;;;;;;;;;6310745;22;20506;-82
2023/05/18 01:55:45;;;;;;;5.85;1.80;;;;;;;;;;6312099;22;20045;-83
2023/05/18 01:58:11;;;;;;;5.10;1.88;;;;;;;;;;6310685;22;20425;-82
2023/05/18 02:00:38;;;;;;;3.83;1.33;;;;;;;;;;6309600;22;20388;-82
2023/05/18 02:03:04;;;;;;;4.18;1.45;;;;;;;;;;6309652;22;20098;-83
2023/05/18 02:05:31;;;;;;;1.73;1.20;;;;;;;;;;6309769;22;20382;-83
2023/05/18 02:07:57;;;;;;;5.90;1.38;;;;;;;;;;6309695;22;20015;-82
2023/05/18 02:10:23;;;;;;;4.80;1.63;;;;;;;;;;6283673;22;20018;-83
2023/05/18 02:12:51;;;;;;;6.05;1.42;;;;;;;;;;6309660;22;20110;-83
2023/05/18 02:15:17;;;;;;;4.97;1.30;;;;;;;;;;6310619;22;20026;-82
2023/05/18 02:17:43;;;;;;;4.72;1.65;;;;;;;;;;6283411;22;20023;-82
2023/05/18 02:20:10;;;;;;;7.00;1.40;;;;;;;;;;6309989;22;20050;-82
2023/05/18 02:22:36;;;;;;;5.80;1.45;;;;;;;;;;6309465;22;20034;-82
2023/05/18 02:25:03;;;;;;;6.25;1.70;;;;;;;;;;6282096;22;20056;-83
2023/05/18 02:27:30;;;;;;;3.67;1.30;;;;;;;;;;6282837;22;20015;-82
2023/05/18 02:29:56;;;;;;;4.10;1.60;;;;;;;;;;6309363;22;20011;-82
2023/05/18 02:32:22;;;;;;;4.30;1.58;;;;;;;;;;6308873;22;20015;-83
2023/05/18 02:34:52;;;;;;;4.55;1.80;;;;;;;;;;6282002;22;20019;-83
2023/05/18 02:37:18;;;;;;;3.90;1.40;;;;;;;;;;6282682;22;20057;-82
2023/05/18 02:39:45;;;;;;;4.05;1.52;;;;;;;;;;6308784;22;20098;-83
2023/05/18 02:42:11;;;;;;;4.28;1.30;;;;;;;;;;6307733;22;20532;-82
2023/05/18 02:44:37;;;;;;;5.28;1.65;;;;;;;;;;6310063;22;20094;-83
2023/05/18 02:47:03;;;;;;;4.03;1.42;;;;;;;;;;6307814;22;20026;-82
2023/05/18 02:49:30;;;;;;;3.92;1.13;;;;;;;;;;6282221;22;20019;-83
2023/05/18 02:51:56;;;;;;;5.13;1.15;;;;;;;;;;6307305;22;20065;-82
2023/05/18 02:54:22;;;;;;;7.47;1.40;;;;;;;;;;6307658;22;20011;-82
2023/05/18 02:56:48;;;;;;;3.55;1.50;;;;;;;;;;6307663;22;20434;-83
2023/05/18 02:59:14;;;;;;;2.90;1.42;;;;;;;;;;6281922;22;20094;-83
2023/05/18 03:01:40;;;;;;;5.15;1.52;;;;;;;;;;6281646;22;20023;-83
2023/05/18 03:04:06;;;;;;;7.38;1.70;;;;;;;;;;6281920;22;20019;-82
2023/05/18 03:06:34;;;;;;;7.10;1.80;;;;;;;;;;6307677;22;20025;-82
2023/05/18 03:09:00;;;;;;;4.28;1.40;;;;;;;;;;6307402;22;20019;-83
2023/05/18 03:11:26;;;;;;;5.03;1.20;;;;;;;;;;6281911;22;20514;-83
2023/05/18 03:13:53;;;;;;;4.57;1.40;;;;;;;;;;6307586;22;20015;-83
2023/05/18 03:16:19;;;;;;;3.92;1.45;;;;;;;;;;6281916;22;20022;-83
2023/05/18 03:18:45;;;;;;;8.20;2.05;;;;;;;;;;6309046;22;20022;-83
2023/05/18 03:21:12;;;;;;;5.70;1.60;;;;;;;;;;6307547;22;20096;-83
2023/05/18 03:23:39;;;;;;;4.40;1.90;;;;;;;;;;6282027;22;20019;-83
2023/05/18 03:26:09;;;;;;;3.47;1.38;;;;;;;;;;6281766;22;20093;-83
2023/05/18 03:28:36;;;;;;;4.65;2.05;;;;;;;;;;6283753;22;20012;-83
2023/05/18 03:31:02;;;;;;;2.28;1.17;;;;;;;;;;6281613;22;20460;-83
2023/05/18 03:33:28;;;;;;;5.55;1.83;;;;;;;;;;6281584;22;20030;-83
2023/05/18 03:35:54;;;;;;;7.50;1.80;;;;;;;;;;6306841;22;20361;-83
2023/05/18 03:38:20;;;;;;;4.57;1.65;;;;;;;;;;6281611;22;20023;-83
2023/05/18 03:40:46;;;;;;;5.13;1.40;;;;;;;;;;6307319;22;20516;-83
2023/05/18 03:43:12;;;;;;;7.07;2.05;;;;;;;;;;6281703;22;20376;-83
2023/05/18 03:45:38;;;;;;;4.43;1.38;;;;;;;;;;6307238;22;20011;-83
2023/05/18 03:48:05;;;;;;;3.95;1.40;;;;;;;;;;6282284;22;20072;-83
2023/05/18 03:50:31;;;;;;;4.07;1.80;;;;;;;;;;6307021;22;20437;-83
2023/05/18 03:52:57;;;;;;;4.57;1.77;;;;;;;;;;6307315;22;20034;-82
2023/05/18 03:55:23;;;;;;;5.95;1.60;;;;;;;;;;6306946;22;20015;-82
2023/05/18 03:57:50;;;;;;;3.92;1.70;;;;;;;;;;6307038;22;20022;-82
2023/05/18 04:00:16;;;;;;;5.55;2.20;;;;;;;;;;6306590;22;20567;-82
2023/05/18 04:02:42;;;;;;;5.05;2.28;;;;;;;;;;6307723;22;20363;-82
2023/05/18 04:05:08;;;;;;;5.15;1.83;;;;;;;;;;6306986;22;20011;-83
2023/05/18 04:07:42;;;;;;;4.07;1.77;;;;;;;;;;6281178;22;20042;-82
2023/05/18 04:10:08;;;;;;;9.05;2.20;;;;;;;;;;6307884;22;20038;-83
2023/05/18 04:12:34;;;;;;;5.40;2.33;;;;;;;;;;6306544;22;20085;-82
2023/05/18 04:15:00;;;;;;;3.97;1.90;;;;;;;;;;6307303;22;20077;-83
2023/05/18 04:17:26;;;;;;;3.58;1.95;;;;;;;;;;6307068;22;20098;-82
2023/05/18 04:19:52;;;;;;;5.50;2.08;;;;;;;;;;6306643;22;20516;-82
2023/05/18 04:22:18;;;;;;;4.95;1.70;;;;;;;;;;6280840;22;20015;-82
2023/05/18 04:24:46;;;;;;;4.82;2.30;;;;;;;;;;6281403;22;20022;-83
2023/05/18 04:27:12;;;;;;;3.65;1.92;;;;;;;;;;6307717;22;20015;-82
2023/05/18 04:29:39;;;;;;;3.22;1.70;;;;;;;;;;6280791;22;20015;-83
2023/05/18 04:32:09;;;;;;;3.97;2.20;;;;;;;;;;6306674;22;20054;-83
2023/05/18 04:34:36;;;;;;;5.10;2.45;;;;;;;;;;6281121;22;20054;-83
2023/05/18 04:37:04;;;;;;;3.67;2.00;;;;;;;;;;6281759;22;20026;-83
2023/05/18 04:39:31;;;;;;;5.68;1.92;;;;;;;;;;6280877;22;20034;-83
2023/05/18 04:41:58;;;;;;;6.00;2.03;;;;;;;;;;6281477;22;20137;-83
2023/05/18 04:44:28;;;;;;;4.03;2.03;;;;;;;;;;6281188;22;20077;-83
2023/05/18 04:46:55;;;;;;;5.90;2.45;;;;;;;;;;6307297;22;20094;-83
2023/05/18 04:49:21;;;;;;;4.32;1.95;;;;;;;;;;6280763;22;20015;-83
2023/05/18 04:51:49;;;;;;;5.80;2.45;;;;;;;;;;6306900;22;20027;-83
2023/05/18 04:54:15;;;;;;;4.22;2.42;;;;;;;;;;6306689;22;20338;-83
2023/05/18 04:56:41;;;;;;;3.20;1.83;;;;;;;;;;6281999;22;20091;-83
2023/05/18 04:59:10;;;;;;;7.38;2.45;;;;;;;;;;6280652;22;20011;-83
2023/05/18 05:01:36;;;;;;;3.90;1.85;;;;;;;;;;6306771;22;20015;-83
2023/05/18 05:04:05;;;;;;;8.57;2.72;;;;;;;;;;6307644;22;20334;-83
2023/05/18 05:06:31;;;;;;;6.28;2.30;;;;;;;;;;6306206;22;20023;-83
2023/05/18 05:08:57;;;;;;;6.30;2.03;;;;;;;;;;6280735;22;20379;-83
2023/05/18 05:11:23;;;;;;;8.27;2.72;;;;;;;;;;6306556;22;20054;-84
2023/05/18 05:13:49;;;;;;;5.40;2.30;;;;;;;;;;6306861;22;20024;-84
2023/05/18 05:16:15;;;;;;;5.70;2.42;;;;;;;;;;6280605;22;20045;-84
2023/05/18 05:18:41;;;;;;;4.53;2.40;;;;;;;;;;6307492;22;20022;-83
2023/05/18 05:21:08;;;;;;;6.10;1.92;;;;;;;;;;6280791;22;20437;-84
2023/05/18 05:23:34;;;;;;;5.57;1.83;;;;;;;;;;6306730;22;20023;-84
2023/05/18 05:26:01;;;;;;;5.15;1.98;;;;;;;;;;6306330;22;20015;-84
2023/05/18 05:28:27;;;;;;;5.97;1.55;;;;;;;;;;6306779;22;20015;-84
2023/05/18 05:30:53;;;;;;;4.72;1.70;;;;;;;;;;6307361;22;20022;-84
2023/05/18 05:33:19;;;;;;;7.22;1.83;;;;;;;;;;6280758;22;20019;-84
2023/05/18 05:35:45;;;;;;;5.88;1.83;;;;;;;;;;6306766;22;20019;-84
2023/05/18 05:38:11;;;;;;;8.60;2.55;;;;;;;;;;6306795;22;20098;-84
2023/05/18 05:40:37;;;;;;;5.82;1.30;;;;;;;;;;6306435;22;20069;-84
2023/05/18 05:43:04;;;;;;;3.63;1.30;;;;;;;;;;6305990;22;20021;-85
2023/05/18 05:45:31;;;;;;;3.15;1.20;;;;;;;;;;6307183;22;20027;-84
2023/05/18 05:47:57;;;;;;;5.38;1.20;;;;;;;;;;6280509;22;20053;-84
2023/05/18 05:50:23;;;;;;;6.07;1.58;;;;;;;;;;6306469;22;20015;-83
2023/05/18 05:52:49;;;;;;;4.60;1.42;;;;;;;;;;6306190;22;20015;-84
2023/05/18 05:55:15;;;;;;;5.30;1.48;;;;;;;;;;6306318;22;20015;-84
2023/05/18 05:57:41;;;;;;;6.53;0.85;;;;;;;;;;6306264;22;20386;-84
2023/05/18 06:00:11;;;;;;;7.20;1.20;;;;;;;;;;6281697;22;20084;-84
2023/05/18 06:02:38;;;;;;;3.70;0.70;;;;;;;;;;6309287;22;20329;-84
2023/05/18 06:05:06;;;;;;;6.53;0.90;;;;;;;;;;6282449;22;20337;-84
2023/05/18 06:07:32;;;;;;;7.72;1.20;;;;;;;;;;6308195;22;20575;-84
2023/05/18 06:09:58;;;;;;;5.03;0.88;;;;;;;;;;6308414;22;20050;-85
2023/05/18 06:12:24;;;;;;;8.48;0.80;;;;;;;;;;6282542;22;20109;-84
2023/05/18 06:14:56;;;;;;;9.50;1.15;;;;;;;;;;6309293;22;20436;-84
2023/05/18 06:17:25;;;;;;;6.15;1.13;;;;;;;;;;6309091;22;20358;-84
2023/05/18 06:19:51;;;;;;;5.55;1.10;;;;;;;;;;6308127;22;20019;-83
2023/05/18 06:22:17;;;;;;;4.47;0.80;;;;;;;;;;6282179;22;20034;-84
2023/05/18 06:24:43;;;;;;;4.38;0.60;;;;;;;;;;6308348;22;20022;-84
2023/05/18 06:27:10;;;;;;;6.07;0.68;;;;;;;;;;6283376;22;20015;-84
2023/05/18 06:29:36;;;;;;;4.13;0.90;;;;;;;;;;6308269;22;20054;-84
2023/05/18 06:32:02;;;;;;;6.82;0.70;;;;;;;;;;6307969;22;20342;-84
2023/05/18 06:34:29;;;;;;;5.72;0.80;;;;;;;;;;6307863;22;20385;-84
2023/05/18 06:36:55;;;;;;;4.68;0.60;;;;;;;;;;6282424;22;20015;-84
2023/05/18 06:39:21;;;;;;;6.60;1.13;;;;;;;;;;6282162;22;20026;-84
2023/05/18 06:41:47;;;;;;;4.88;0.52;;;;;;;;;;6307947;22;20370;-83
2023/05/18 06:44:13;;;;;;;5.28;0.70;;;;;;;;;;6308898;22;20094;-84
2023/05/18 06:46:40;;;;;;;3.80;0.40;;;;;;;;;;6307888;22;20341;-84
2023/05/18 06:49:06;;;;;;;5.85;0.63;;;;;;;;;;6308043;22;20080;-83
2023/05/18 06:51:32;;;;;;;5.40;0.75;;;;;;;;;;6308804;22;20050;-84
2023/05/18 06:53:58;;;;;;;3.40;0.43;;;;;;;;;;6309231;22;20069;-83
2023/05/18 06:56:24;;;;;;;7.00;0.90;;;;;;;;;;6282049;22;20011;-83
2023/05/18 06:58:50;;;;;;;2.35;0.45;;;;;;;;;;6307669;22;20019;-84
2023/05/18 07:01:16;;;;;;;4.65;0.47;;;;;;;;;;6281787;22;20015;-84
2023/05/18 07:03:43;;;;;;;4.88;0.60;;;;;;;;;;6281630;22;20026;-84
2023/05/18 07:06:09;;;;;;;3.42;0.75;;;;;;;;;;6281869;22;20102;-84
2023/05/18 07:08:39;;;;;;;9.55;0.70;;;;;;;;;;6282043;22;20046;-84
2023/05/18 07:11:05;;;;;;;6.65;0.52;;;;;;;;;;6308464;22;20011;-84
2023/05/18 07:13:31;;;;;;;6.28;0.65;;;;;;;;;;6308632;22;20016;-84
2023/05/18 07:15:58;;;;;;;5.43;0.80;;;;;;;;;;6307146;22;20015;-85
2023/05/18 07:18:25;;;;;;;5.57;0.60;;;;;;;;;;6281734;22;20457;-84
2023/05/18 07:20:51;;;;;;;5.15;0.80;;;;;;;;;;6281756;22;20015;-84
2023/05/18 07:23:17;;;;;;;6.88;0.60;;;;;;;;;;6308398;22;20094;-85
2023/05/18 07:25:43;;;;;;;5.95;0.40;;;;;;;;;;6307841;22;20042;-84
2023/05/18 07:28:09;;;;;;;4.50;0.57;;;;;;;;;;6307812;22;20338;-84
2023/05/18 07:30:36;;;;;;;5.28;0.88;;;;;;;;;;6307395;22;20092;-85
2023/05/18 07:33:02;;;;;;;6.35;0.63;;;;;;;;;;6281842;22;20012;-84
2023/05/18 07:35:28;;;;;;;4.30;0.70;;;;;;;;;;6308388;22;20339;-84
2023/05/18 07:37:54;;;;;;;4.85;0.40;;;;;;;;;;6281651;22;20022;-84
2023/05/18 07:40:20;;;;;;;6.03;0.40;;;;;;;;;;6307376;22;20026;-81
2023/05/18 07:42:46;;;;;;;4.90;0.60;;;;;;;;;;6281779;22;20019;-83
2023/05/18 07:45:13;;;;;;;5.35;0.77;;;;;;;;;;6281601;22;20015;-83
2023/05/18 07:47:39;;;;;;;2.65;0.50;;;;;;;;;;6308332;22;20022;-84
2023/05/18 07:50:05;;;;;;;5.18;0.75;;;;;;;;;;6307174;22;20022;-84
2023/05/18 07:52:32;;;;;;;4.65;0.47;;;;;;;;;;6307487;22;20034;-83
2023/05/18 07:54:58;;;;;;;4.53;0.80;;;;;;;;;;6307211;22;20015;-85
2023/05/18 07:57:24;;;;;;;1.80;0.47;;;;;;;;;;6307216;22;20018;-84
2023/05/18 07:59:51;;;;;;;4.28;0.50;;;;;;;;;;6280980;22;20019;-83
2023/05/18 08:02:18;;;;;;;4.38;0.50;;;;;;;;;;6281721;22;20064;-84
2023/05/18 08:04:44;;;;;;;5.72;0.68;;;;;;;;;;6308134;22;20018;-84
2023/05/18 08:07:11;;;;;;;2.72;0.68;;;;;;;;;;6307081;22;20019;-84
2023/05/18 08:09:37;;;;;;;3.28;0.57;;;;;;;;;;6308498;22;20021;-84
2023/05/18 08:12:04;;;;;;;3.35;0.40;;;;;;;;;;6281451;22;20449;-84
2023/05/18 08:14:30;;;;;;;3.92;0.50;;;;;;;;;;6306993;22;20015;-84
2023/05/18 08:16:56;;;;;;;4.43;0.70;;;;;;;;;;6306774;22;20026;-84
2023/05/18 08:19:22;;;;;;;4.28;0.82;;;;;;;;;;6282447;22;20018;-84
2023/05/18 08:21:48;;;;;;;5.07;0.60;;;;;;;;;;6306972;22;20441;-84
2023/05/18 08:24:14;;;;;;;3.78;0.50;;;;;;;;;;6308379;22;20011;-83
2023/05/18 08:26:40;;;;;;;2.13;0.45;;;;;;;;;;6308634;22;20057;-84
2023/05/18 08:29:09;;;;;;;3.50;0.50;;;;;;;;;;6309280;22;20041;-84
2023/05/18 08:31:39;;;;;;;4.63;0.63;;;;;;;;;;6310536;22;20015;-84
2023/05/18 08:34:06;;;;;;;4.32;0.50;;;;;;;;;;6316920;22;20151;-83
2023/05/18 08:36:33;;;;;;;3.10;0.45;;;;;;;;;;6324933;22;20015;-83
2023/05/18 08:39:01;;;;;;;5.72;0.63;;;;;;;;;;6316799;22;20022;-83
2023/05/18 08:41:35;;;;;;;2.97;0.60;;;;;;;;;;6307952;22;20019;-83
2023/05/18 08:44:21;;;;;;;3.30;0.53;;;;;;;;;;6307549;22;20015;-83
2023/05/18 08:46:50;;;;;;;5.63;0.80;;;;;;;;;;6307432;22;20094;-83
2023/05/18 08:49:20;;;;;;;5.72;0.60;;;;;;;;;;6307990;22;20085;-82
2023/05/18 08:51:48;;;;;;;4.40;0.43;;;;;;;;;;6307979;22;20019;-83
2023/05/18 08:54:21;;;;;;;2.30;0.55;;;;;;;;;;6308369;22;20017;-83
2023/05/18 08:56:47;;;;;;;4.20;0.57;;;;;;;;;;6307191;22;20309;-84
2023/05/18 08:59:15;;;;;;;2.78;0.40;;;;;;;;;;6307385;22;20015;-83
2023/05/18 09:01:41;;;;;;;2.90;0.52;;;;;;;;;;6307246;22;20112;-83
2023/05/18 09:04:08;;;;;;;6.35;0.60;;;;;;;;;;6280975;22;20019;-83
2023/05/18 09:06:35;;;;;;;2.50;0.43;;;;;;;;;;6307311;22;20039;-83
2023/05/18 09:09:05;;;;;;;3.33;0.60;;;;;;;;;;6308640;22;20019;-83
2023/05/18 09:11:32;;;;;;;2.85;0.60;;;;;;;;;;6309246;22;20022;-84
2023/05/18 09:13:59;;;;;;;2.42;0.50;;;;;;;;;;6309422;22;20322;-85
2023/05/18 09:16:26;;;;;;;3.80;0.43;;;;;;;;;;6310890;22;20068;-83
2023/05/18 09:18:52;;;;;;;4.03;0.88;;;;;;;;;;6308870;22;20015;-82
2023/05/18 09:21:18;;;;;;;4.30;0.70;;;;;;;;;;6308727;22;20019;-83
2023/05/18 09:23:44;;;;;;;3.72;0.63;;;;;;;;;;6283548;22;20038;-84
2023/05/18 09:26:12;;;;;;;4.25;0.75;;;;;;;;;;6307422;22;20090;-82
2023/05/18 09:28:39;;;;;;;5.13;0.52;;;;;;;;;;6307023;22;20090;-82
2023/05/18 09:31:16;;;;;;;4.18;0.75;;;;;;;;;;6280544;22;20048;-82
2023/05/18 09:33:43;;;;;;;2.65;0.90;;;;;;;;;;6308459;22;20015;-82
2023/05/18 09:36:10;;;;;;;4.53;0.70;;;;;;;;;;6284198;22;20329;-83
2023/05/18 09:38:46;;;;;;;3.40;0.50;;;;;;;;;;6283996;22;20038;-83
2023/05/18 09:41:16;;;;;;;7.20;0.75;;;;;;;;;;6309040;22;20124;-84
2023/05/18 09:43:43;;;;;;;4.88;0.65;;;;;;;;;;6308670;22;20093;-83
2023/05/18 09:46:10;;;;;;;6.05;0.40;;;;;;;;;;6308064;22;20045;-83
2023/05/18 09:48:36;;;;;;;3.58;0.60;;;;;;;;;;6283063;22;20050;-84
2023/05/18 09:51:15;;;;;;;5.07;0.65;;;;;;;;;;6308405;22;20011;-84
2023/05/18 09:53:42;;;;;;;4.68;0.50;;;;;;;;;;6309426;22;20109;-84
2023/05/18 09:56:10;;;;;;;3.92;0.70;;;;;;;;;;6308387;22;20023;-84
2023/05/18 09:58:40;;;;;;;1.85;0.50;;;;;;;;;;6309885;22;20019;-84
2023/05/18 10:01:06;;;;;;;5.05;0.70;;;;;;;;;;6308562;22;20011;-84
2023/05/18 10:03:36;;;;;;;4.22;0.70;;;;;;;;;;6283234;22;20097;-83
2023/05/18 10:06:07;;;;;;;2.63;0.50;;;;;;;;;;6309202;22;20023;-84
2023/05/18 10:08:33;;;;;;;2.15;0.52;;;;;;;;;;6309415;22;20445;-84
2023/05/18 10:11:00;;;;;;;4.47;0.80;;;;;;;;;;6309240;22;20326;-83
2023/05/18 10:13:27;;;;;;;6.10;1.00;;;;;;;;;;6308213;22;20446;-83
2023/05/18 10:15:55;;;;;;;5.20;0.60;;;;;;;;;;6309116;22;20338;-83
2023/05/18 10:18:23;;;;;;;4.68;0.75;;;;;;;;;;6308218;22;20027;-83
2023/05/18 10:20:49;;;;;;;2.40;0.60;;;;;;;;;;6309204;22;20054;-84
2023/05/18 10:23:17;;;;;;;3.63;0.60;;;;;;;;;;6282794;22;20011;-83
2023/05/18 10:25:44;;;;;;;4.32;1.00;;;;;;;;;;6308087;22;20015;-83
2023/05/18 10:28:11;;;;;;;3.00;0.88;;;;;;;;;;6307902;22;20055;-83
2023/05/18 10:30:40;;;;;;;3.05;0.73;;;;;;;;;;6308982;22;20092;-83
2023/05/18 10:33:06;;;;;;;2.28;0.70;;;;;;;;;;6308064;22;20021;-84
2023/05/18 10:35:32;;;;;;;1.92;0.50;;;;;;;;;;6282466;22;20086;-83
2023/05/18 10:37:59;;;;;;;4.47;0.88;;;;;;;;;;6309086;22;20078;-83
2023/05/18 10:40:26;;;;;;;2.97;0.60;;;;;;;;;;6308004;22;20026;-83
2023/05/18 10:42:53;;;;;;;1.85;0.50;;;;;;;;;;6308088;22;20054;-83
2023/05/18 10:45:19;;;;;;;2.97;0.50;;;;;;;;;;6307934;22;20463;-85
2023/05/18 10:47:47;;;;;;;3.20;0.60;;;;;;;;;;6309581;22;20031;-83
2023/05/18 10:50:15;;;;;;;4.80;0.65;;;;;;;;;;6307979;22;20015;-84
2023/05/18 10:52:42;;;;;;;2.70;0.80;;;;;;;;;;6307807;22;20015;-84
2023/05/18 10:55:08;;;;;;;7.22;1.40;;;;;;;;;;6307857;22;20023;-83
2023/05/18 10:57:39;;;;;;;5.07;0.80;;;;;;;;;;6307807;22;20019;-83
2023/05/18 11:00:08;;;;;;;2.55;0.55;;;;;;;;;;6309112;22;20015;-83
2023/05/18 11:02:34;;;;;;;6.10;1.05;;;;;;;;;;6308190;22;20019;-83
2023/05/18 11:05:04;;;;;;;2.47;0.40;;;;;;;;;;6308085;22;20073;-84
2023/05/18 11:07:32;;;;;;;4.25;0.60;;;;;;;;;;6309353;22;20023;-84
2023/05/18 11:10:00;;;;;;;3.63;0.70;;;;;;;;;;6307590;22;20434;-84
2023/05/18 11:12:27;;;;;;;4.82;0.73;;;;;;;;;;6309165;22;20015;-84
2023/05/18 11:14:56;;;;;;;2.95;0.68;;;;;;;;;;6281528;22;20015;-84
2023/05/18 11:17:28;;;;;;;3.42;0.43;;;;;;;;;;6307623;22;20023;-84
2023/05/18 11:20:06;;;;;;;3.58;0.98;;;;;;;;;;6281914;22;20026;-84
2023/05/18 11:22:48;;;;;;;6.53;0.77;;;;;;;;;;6307585;22;20015;-84
2023/05/18 11:25:24;;;;;;;4.13;1.27;;;;;;;;;;6307923;22;20460;-85
2023/05/18 11:27:54;;;;;;;4.43;0.82;;;;;;;;;;6308609;22;20054;-85
2023/05/18 11:30:27;;;;;;;5.90;0.80;;;;;;;;;;6307631;22;20360;-84
2023/05/18 11:33:07;;;;;;;3.28;0.80;;;;;;;;;;6281681;22;20055;-84
2023/05/18 11:35:37;;;;;;;6.97;0.88;;;;;;;;;;6307380;22;20096;-84
2023/05/18 11:38:07;;;;;;;2.45;0.60;;;;;;;;;;6307699;22;20467;-85
2023/05/18 11:40:51;;;;;;;5.13;1.00;;;;;;;;;;6307450;22;20019;-84
2023/05/18 11:43:20;;;;;;;3.97;0.63;;;;;;;;;;6307488;22;20015;-84
2023/05/18 11:46:09;;;;;;;3.55;1.00;;;;;;;;;;6281614;22;20441;-84
2023/05/18 11:48:43;;;;;;;3.85;0.85;;;;;;;;;;6305612;22;20026;-84
2023/05/18 11:51:10;;;;;;;;;;;;;;;;;;6308145;22;20012;-84
2023/05/18 11:53:36;;;;;;;3.30;0.70;;;;;;;;;;6307525;22;19915;-84
2023/05/18 11:56:03;;;;;;;2.45;0.70;;;;;;;;;;6307328;22;20019;-84
2023/05/18 11:58:29;;;;;;;3.10;0.77;;;;;;;;;;6308051;22;20015;-84
2023/05/18 12:00:56;;;;;;;3.25;0.75;;;;;;;;;;6280824;22;20346;-84
2023/05/18 12:03:24;;;;;;;2.72;0.60;;;;;;;;;;6307568;22;20046;-84
2023/05/18 12:05:50;;;;;;;3.45;0.88;;;;;;;;;;6308801;22;20023;-84
2023/05/18 12:08:20;;;;;;;3.42;0.57;;;;;;;;;;6306750;22;20047;-84
2023/05/18 12:10:46;;;;;;;1.63;0.60;;;;;;;;;;6307043;22;20023;-84
2023/05/18 12:13:13;;;;;;;3.08;0.80;;;;;;;;;;6307172;22;20022;-84
2023/05/18 12:15:40;;;;;;;3.45;0.90;;;;;;;;;;6308046;22;20019;-84
2023/05/18 12:18:06;;;;;;;2.40;0.60;;;;;;;;;;6307046;22;20018;-84
2023/05/18 12:20:34;;;;;;;2.67;0.60;;;;;;;;;;6281214;22;20011;-85
2023/05/18 12:23:00;;;;;;;2.60;0.85;;;;;;;;;;6282704;22;20087;-85
2023/05/18 12:25:27;;;;;;;3.05;0.80;;;;;;;;;;6281351;22;20015;-84
2023/05/18 12:27:54;;;;;;;2.40;0.80;;;;;;;;;;6281642;22;20025;-84
2023/05/18 12:30:21;;;;;;;3.25;0.80;;;;;;;;;;6306906;22;20038;-84
2023/05/18 12:32:51;;;;;;;3.72;1.02;;;;;;;;;;6281128;22;20332;-84
2023/05/18 12:35:21;;;;;;;6.55;1.08;;;;;;;;;;6306980;22;20015;-85
2023/05/18 12:37:47;;;;;;;3.17;0.82;;;;;;;;;;6307888;22;20018;-85
2023/05/18 12:40:14;;;;;;;3.30;0.93;;;;;;;;;;6307297;22;20094;-85
2023/05/18 12:42:40;;;;;;;4.63;0.70;;;;;;;;;;6280686;22;20055;-84
2023/05/18 12:45:06;;;;;;;2.67;0.80;;;;;;;;;;6307009;22;20023;-85
2023/05/18 12:47:33;;;;;;;5.15;0.98;;;;;;;;;;6306859;22;20019;-84
2023/05/18 12:50:02;;;;;;;2.55;0.82;;;;;;;;;;6307066;22;20011;-84
2023/05/18 12:52:28;;;;;;;3.75;0.65;;;;;;;;;;6280939;22;20046;-83
2023/05/18 12:54:59;;;;;;;2.80;0.65;;;;;;;;;;6309315;22;20015;-84
2023/05/18 12:57:26;;;;;;;4.57;0.70;;;;;;;;;;6307627;22;20019;-84
2023/05/18 12:59:55;;;;;;;2.25;0.80;;;;;;;;;;6306332;22;20019;-83
2023/05/18 13:02:26;;;;;;;4.35;0.60;;;;;;;;;;6306689;22;20019;-84
2023/05/18 13:05:02;;;;;;;3.78;0.70;;;;;;;;;;6280504;22;20115;-85
2023/05/18 13:07:28;;;;;;;4.55;0.75;;;;;;;;;;6306591;22;20064;-84
2023/05/18 13:09:59;;;;;;;5.72;0.80;;;;;;;;;;6306950;22;20023;-84
2023/05/18 13:12:35;;;;;;;2.50;0.68;;;;;;;;;;6307109;22;20015;-85
2023/05/18 13:15:08;;;;;;;3.88;0.85;;;;;;;;;;6306830;22;20051;-85
2023/05/18 13:17:34;;;;;;;2.80;1.02;;;;;;;;;;6306749;22;20019;-85
2023/05/18 13:20:00;;;;;;;1.63;0.80;;;;;;;;;;6306697;22;20023;-85
2023/05/18 13:22:26;;;;;;;3.25;0.60;;;;;;;;;;6280955;22;20334;-83
2023/05/18 13:24:52;;;;;;;2.78;0.50;;;;;;;;;;6306676;22;20022;-84
2023/05/18 13:27:18;;;;;;;3.05;0.70;;;;;;;;;;6306697;22;20019;-84
2023/05/18 13:29:44;;;;;;;5.63;0.80;;;;;;;;;;6280912;22;20055;-84
2023/05/18 13:32:10;;;;;;;4.28;0.80;;;;;;;;;;6307206;22;20024;-83
2023/05/18 13:34:36;;;;;;;3.20;0.82;;;;;;;;;;6306411;22;20194;-83
2023/05/18 13:37:03;;;;;;;6.63;0.68;;;;;;;;;;6306505;22;20522;-82
2023/05/18 13:39:29;;;;;;;4.95;0.80;;;;;;;;;;6306544;22;20054;-82
2023/05/18 13:41:55;;;;;;;7.15;0.90;;;;;;;;;;6306429;22;20011;-83
2023/05/18 13:44:21;;;;;;;1.80;0.60;;;;;;;;;;6280682;22;20024;-83
2023/05/18 13:46:47;;;;;;;3.40;0.70;;;;;;;;;;6306130;22;20094;-82
2023/05/18 13:49:13;;;;;;;4.40;0.90;;;;;;;;;;6305990;22;20457;-82
2023/05/18 13:51:40;;;;;;;3.65;0.50;;;;;;;;;;6306496;22;20019;-82
2023/05/18 13:54:06;;;;;;;5.55;1.30;;;;;;;;;;6307381;22;20021;-83
2023/05/18 13:56:33;;;;;;;1.73;0.82;;;;;;;;;;6280554;22;20024;-82
2023/05/18 13:58:59;;;;;;;2.28;0.50;;;;;;;;;;6307926;22;20015;-82
2023/05/18 14:01:25;;;;;;;4.22;0.65;;;;;;;;;;6306973;22;20368;-82
2023/05/18 14:03:51;;;;;;;3.45;0.63;;;;;;;;;;6306296;22;20441;-82
2023/05/18 14:06:19;;;;;;;2.70;0.63;;;;;;;;;;6306493;22;20433;-82
2023/05/18 14:08:45;;;;;;;3.63;0.70;;;;;;;;;;6306470;22;20019;-83
2023/05/18 14:11:11;;;;;;;3.28;0.50;;;;;;;;;;6306330;22;20064;-83
2023/05/18 14:13:37;;;;;;;3.70;0.50;;;;;;;;;;6281048;22;20050;-83
2023/05/18 14:16:03;;;;;;;3.08;0.60;;;;;;;;;;6305928;22;20019;-82
2023/05/18 14:18:30;;;;;;;2.65;0.55;;;;;;;;;;6280655;22;20011;-82
2023/05/18 14:21:00;;;;;;;3.60;0.60;;;;;;;;;;6307524;22;20023;-82
2023/05/18 14:23:27;;;;;;;3.13;0.80;;;;;;;;;;6308181;22;20046;-82
2023/05/18 14:25:53;;;;;;;2.38;0.80;;;;;;;;;;6307762;22;20022;-83
2023/05/18 14:28:19;;;;;;;2.60;0.70;;;;;;;;;;6309620;22;20045;-82
2023/05/18 14:30:45;;;;;;;2.42;0.40;;;;;;;;;;6308011;22;20016;-82
2023/05/18 14:33:11;;;;;;;4.97;1.08;;;;;;;;;;6307868;22;20449;-82
2023/05/18 14:35:38;;;;;;;3.20;0.75;;;;;;;;;;6308396;22;20429;-82
2023/05/18 14:38:10;;;;;;;3.63;0.55;;;;;;;;;;6282642;22;20019;-83
2023/05/18 14:40:36;;;;;;;3.47;0.68;;;;;;;;;;6309078;22;20476;-82
2023/05/18 14:43:02;;;;;;;4.60;0.85;;;;;;;;;;6307985;22;20333;-83
2023/05/18 14:45:28;;;;;;;2.53;0.68;;;;;;;;;;6307993;22;20036;-84